sensor_id;sensor_type;location;lat;lon;timestamp;temperature;humidity
39023;DHT22;25908;51.984;5.928;2022-10-17T00:01:48;15.20;99.90
39023;DHT22;25908;51.984;5.928;2022-10-17T00:04:13;15.10;99.90
39023;DHT22;25908;51.984;5.928;2022-10-17T00:06:39;15.20;99.90
39023;DHT22;25908;51.984;5.928;2022-10-17T00:09:05;15.10;99.90
39023;DHT22;25908;51.984;5.928;2022-10-17T00:11:30;15.10;99.90
39023;DHT22;25908;51.984;5.928;2022-10-17T00:13:56;15.10;99.90
39023;DHT22;25908;51.984;5.928;2022-10-17T00:16:26;15.10;99.90
39023;DHT22;25908;51.984;5.928;2022-10-17T00:18:52;15.10;99.90
39023;DHT22;25908;51.984;5.928;2022-10-17T00:21:19;15.10;99.90
39023;DHT22;25908;51.984;5.928;2022-10-17T00:23:46;15.00;99.90
39023;DHT22;25908;51.984;5.928;2022-10-17T00:26:12;15.00;99.90
39023;DHT22;25908;51.984;5.928;2022-10-17T00:28:37;15.00;99.90
39023;DHT22;25908;51.984;5.928;2022-10-17T00:31:05;15.00;99.90
39023;DHT22;25908;51.984;5.928;2022-10-17T00:33:32;15.10;99.90
39023;DHT22;25908;51.984;5.928;2022-10-17T00:36:08;15.00;99.90
39023;DHT22;25908;51.984;5.928;2022-10-17T00:38:35;15.00;99.90
39023;DHT22;25908;51.984;5.928;2022-10-17T00:41:01;15.00;99.90
39023;DHT22;25908;51.984;5.928;2022-10-17T00:43:27;15.00;99.90
39023;DHT22;25908;51.984;5.928;2022-10-17T00:45:54;15.00;99.90
39023;DHT22;25908;51.984;5.928;2022-10-17T00:48:21;15.00;99.90
39023;DHT22;25908;51.984;5.928;2022-10-17T00:50:49;15.10;99.90
39023;DHT22;25908;51.984;5.928;2022-10-17T00:53:15;15.00;99.90
39023;DHT22;25908;51.984;5.928;2022-10-17T00:55:48;15.00;99.90
39023;DHT22;25908;51.984;5.928;2022-10-17T00:58:15;15.00;99.90
39023;DHT22;25908;51.984;5.928;2022-10-17T01:00:42;15.00;99.90
39023;DHT22;25908;51.984;5.928;2022-10-17T01:03:08;15.00;99.90
39023;DHT22;25908;51.984;5.928;2022-10-17T01:05:34;15.00;99.90
39023;DHT22;25908;51.984;5.928;2022-10-17T01:08:00;15.00;99.90
39023;DHT22;25908;51.984;5.928;2022-10-17T01:10:39;15.00;99.90
39023;DHT22;25908;51.984;5.928;2022-10-17T01:13:14;15.00;99.90
39023;DHT22;25908;51.984;5.928;2022-10-17T01:16:02;15.00;99.90
39023;DHT22;25908;51.984;5.928;2022-10-17T01:24:11;15.00;99.90
39023;DHT22;25908;51.984;5.928;2022-10-17T01:29:32;15.00;99.90
39023;DHT22;25908;51.984;5.928;2022-10-17T01:32:14;15.10;99.90
39023;DHT22;25908;51.984;5.928;2022-10-17T01:34:54;15.10;99.90
39023;DHT22;25908;51.984;5.928;2022-10-17T01:37:29;15.10;99.90
39023;DHT22;25908;51.984;5.928;2022-10-17T01:40:13;15.10;99.90
39023;DHT22;25908;51.984;5.928;2022-10-17T01:43:03;15.10;99.90
39023;DHT22;25908;51.984;5.928;2022-10-17T01:48:35;15.10;99.90
39023;DHT22;25908;51.984;5.928;2022-10-17T01:51:59;15.10;99.90
39023;DHT22;25908;51.984;5.928;2022-10-17T01:54:55;15.10;99.90
39023;DHT22;25908;51.984;5.928;2022-10-17T01:57:37;15.10;99.90
39023;DHT22;25908;51.984;5.928;2022-10-17T02:00:06;15.10;99.90
39023;DHT22;25908;51.984;5.928;2022-10-17T02:02:34;15.10;99.90
39023;DHT22;25908;51.984;5.928;2022-10-17T02:05:02;15.10;99.90
39023;DHT22;25908;51.984;5.928;2022-10-17T02:07:27;15.20;99.90
39023;DHT22;25908;51.984;5.928;2022-10-17T02:09:53;15.20;99.90
39023;DHT22;25908;51.984;5.928;2022-10-17T02:17:56;15.20;99.90
39023;DHT22;25908;51.984;5.928;2022-10-17T02:20:30;15.20;99.90
39023;DHT22;25908;51.984;5.928;2022-10-17T02:23:09;15.20;99.90
39023;DHT22;25908;51.984;5.928;2022-10-17T02:26:03;15.20;99.90
39023;DHT22;25908;51.984;5.928;2022-10-17T02:31:20;15.20;99.90
39023;DHT22;25908;51.984;5.928;2022-10-17T02:34:14;15.20;99.90
39023;DHT22;25908;51.984;5.928;2022-10-17T02:36:45;15.20;99.90
39023;DHT22;25908;51.984;5.928;2022-10-17T02:39:12;15.10;99.90
39023;DHT22;25908;51.984;5.928;2022-10-17T02:41:39;15.10;99.90
39023;DHT22;25908;51.984;5.928;2022-10-17T02:44:06;15.10;99.90
39023;DHT22;25908;51.984;5.928;2022-10-17T02:46:34;15.00;99.90
39023;DHT22;25908;51.984;5.928;2022-10-17T02:49:11;15.00;99.90
39023;DHT22;25908;51.984;5.928;2022-10-17T02:54:30;15.00;99.90
39023;DHT22;25908;51.984;5.928;2022-10-17T02:57:01;15.00;99.90
39023;DHT22;25908;51.984;5.928;2022-10-17T02:59:32;15.00;99.90
39023;DHT22;25908;51.984;5.928;2022-10-17T03:02:02;15.00;99.90
39023;DHT22;25908;51.984;5.928;2022-10-17T03:04:28;15.00;99.90
39023;DHT22;25908;51.984;5.928;2022-10-17T03:06:54;15.00;99.90
39023;DHT22;25908;51.984;5.928;2022-10-17T03:09:19;15.00;99.90
39023;DHT22;25908;51.984;5.928;2022-10-17T03:11:45;14.90;99.90
39023;DHT22;25908;51.984;5.928;2022-10-17T03:14:11;14.90;99.90
39023;DHT22;25908;51.984;5.928;2022-10-17T03:16:36;14.90;99.90
39023;DHT22;25908;51.984;5.928;2022-10-17T03:19:02;14.90;99.90
39023;DHT22;25908;51.984;5.928;2022-10-17T03:21:28;14.90;99.90
39023;DHT22;25908;51.984;5.928;2022-10-17T03:23:53;14.90;99.90
39023;DHT22;25908;51.984;5.928;2022-10-17T03:26:19;14.90;99.90
39023;DHT22;25908;51.984;5.928;2022-10-17T03:28:44;14.90;99.90
39023;DHT22;25908;51.984;5.928;2022-10-17T03:31:14;14.90;99.90
39023;DHT22;25908;51.984;5.928;2022-10-17T03:33:40;14.90;99.90
39023;DHT22;25908;51.984;5.928;2022-10-17T03:36:07;14.90;99.90
39023;DHT22;25908;51.984;5.928;2022-10-17T03:38:33;14.90;99.90
39023;DHT22;25908;51.984;5.928;2022-10-17T03:40:59;14.90;99.90
39023;DHT22;25908;51.984;5.928;2022-10-17T03:43:24;14.90;99.90
39023;DHT22;25908;51.984;5.928;2022-10-17T03:45:50;14.90;99.90
39023;DHT22;25908;51.984;5.928;2022-10-17T03:48:15;14.90;99.90
39023;DHT22;25908;51.984;5.928;2022-10-17T03:50:41;14.90;99.90
39023;DHT22;25908;51.984;5.928;2022-10-17T03:53:06;14.80;99.90
39023;DHT22;25908;51.984;5.928;2022-10-17T03:55:32;14.80;99.90
39023;DHT22;25908;51.984;5.928;2022-10-17T03:57:58;14.80;99.90
39023;DHT22;25908;51.984;5.928;2022-10-17T04:00:24;14.80;99.90
39023;DHT22;25908;51.984;5.928;2022-10-17T04:02:49;14.80;99.90
39023;DHT22;25908;51.984;5.928;2022-10-17T04:05:15;14.80;99.90
39023;DHT22;25908;51.984;5.928;2022-10-17T04:07:40;14.80;99.90
39023;DHT22;25908;51.984;5.928;2022-10-17T04:10:06;14.80;99.90
39023;DHT22;25908;51.984;5.928;2022-10-17T04:12:32;14.70;99.90
39023;DHT22;25908;51.984;5.928;2022-10-17T04:14:58;14.80;99.90
39023;DHT22;25908;51.984;5.928;2022-10-17T04:17:24;14.80;99.90
39023;DHT22;25908;51.984;5.928;2022-10-17T04:19:49;14.80;99.90
39023;DHT22;25908;51.984;5.928;2022-10-17T04:22:15;14.80;99.90
39023;DHT22;25908;51.984;5.928;2022-10-17T04:24:40;14.80;99.90
39023;DHT22;25908;51.984;5.928;2022-10-17T04:27:06;14.70;99.90
39023;DHT22;25908;51.984;5.928;2022-10-17T04:29:31;14.70;99.90
39023;DHT22;25908;51.984;5.928;2022-10-17T04:31:57;14.80;99.90
39023;DHT22;25908;51.984;5.928;2022-10-17T04:34:23;14.70;99.90
39023;DHT22;25908;51.984;5.928;2022-10-17T04:36:48;14.80;99.90
39023;DHT22;25908;51.984;5.928;2022-10-17T04:39:16;14.70;99.90
39023;DHT22;25908;51.984;5.928;2022-10-17T04:41:41;14.70;99.90
39023;DHT22;25908;51.984;5.928;2022-10-17T04:44:08;14.70;99.90
39023;DHT22;25908;51.984;5.928;2022-10-17T04:46:34;14.70;99.90
39023;DHT22;25908;51.984;5.928;2022-10-17T04:48:59;14.60;99.90
39023;DHT22;25908;51.984;5.928;2022-10-17T04:51:25;14.60;99.90
39023;DHT22;25908;51.984;5.928;2022-10-17T04:53:51;14.60;99.90
39023;DHT22;25908;51.984;5.928;2022-10-17T04:56:20;14.60;99.90
39023;DHT22;25908;51.984;5.928;2022-10-17T04:58:46;14.60;99.90
39023;DHT22;25908;51.984;5.928;2022-10-17T05:01:17;14.60;99.90
39023;DHT22;25908;51.984;5.928;2022-10-17T05:03:43;14.60;99.90
39023;DHT22;25908;51.984;5.928;2022-10-17T05:06:11;14.60;99.90
39023;DHT22;25908;51.984;5.928;2022-10-17T05:08:37;14.60;99.90
39023;DHT22;25908;51.984;5.928;2022-10-17T05:11:04;14.60;99.90
39023;DHT22;25908;51.984;5.928;2022-10-17T05:13:31;14.60;99.90
39023;DHT22;25908;51.984;5.928;2022-10-17T05:15:58;14.60;99.90
39023;DHT22;25908;51.984;5.928;2022-10-17T05:18:24;14.50;99.90
39023;DHT22;25908;51.984;5.928;2022-10-17T05:20:50;14.50;99.90
39023;DHT22;25908;51.984;5.928;2022-10-17T05:23:15;14.50;99.90
39023;DHT22;25908;51.984;5.928;2022-10-17T05:25:41;14.50;99.90
39023;DHT22;25908;51.984;5.928;2022-10-17T05:28:06;14.50;99.90
39023;DHT22;25908;51.984;5.928;2022-10-17T05:30:33;14.50;99.90
39023;DHT22;25908;51.984;5.928;2022-10-17T05:32:59;14.50;99.90
39023;DHT22;25908;51.984;5.928;2022-10-17T05:35:24;14.40;99.90
39023;DHT22;25908;51.984;5.928;2022-10-17T05:37:50;14.40;99.90
39023;DHT22;25908;51.984;5.928;2022-10-17T05:40:16;14.40;99.90
39023;DHT22;25908;51.984;5.928;2022-10-17T05:42:48;14.40;99.90
39023;DHT22;25908;51.984;5.928;2022-10-17T05:45:14;14.40;99.90
39023;DHT22;25908;51.984;5.928;2022-10-17T05:47:40;14.40;99.90
39023;DHT22;25908;51.984;5.928;2022-10-17T05:50:07;14.40;99.90
39023;DHT22;25908;51.984;5.928;2022-10-17T05:52:33;14.40;99.90
39023;DHT22;25908;51.984;5.928;2022-10-17T05:54:58;14.40;99.90
39023;DHT22;25908;51.984;5.928;2022-10-17T05:57:27;14.40;99.90
39023;DHT22;25908;51.984;5.928;2022-10-17T05:59:52;14.40;99.90
39023;DHT22;25908;51.984;5.928;2022-10-17T06:02:18;14.40;99.90
39023;DHT22;25908;51.984;5.928;2022-10-17T06:04:43;14.40;99.90
39023;DHT22;25908;51.984;5.928;2022-10-17T06:07:14;14.40;99.90
39023;DHT22;25908;51.984;5.928;2022-10-17T06:09:40;14.50;99.90
39023;DHT22;25908;51.984;5.928;2022-10-17T06:12:06;14.40;99.90
39023;DHT22;25908;51.984;5.928;2022-10-17T06:14:32;14.40;99.90
39023;DHT22;25908;51.984;5.928;2022-10-17T06:16:57;14.40;99.90
39023;DHT22;25908;51.984;5.928;2022-10-17T06:19:23;14.40;99.90
39023;DHT22;25908;51.984;5.928;2022-10-17T06:21:49;14.40;99.90
39023;DHT22;25908;51.984;5.928;2022-10-17T06:24:15;14.50;99.90
39023;DHT22;25908;51.984;5.928;2022-10-17T06:26:41;14.50;99.90
39023;DHT22;25908;51.984;5.928;2022-10-17T06:29:07;14.50;99.90
39023;DHT22;25908;51.984;5.928;2022-10-17T06:31:32;14.50;99.90
39023;DHT22;25908;51.984;5.928;2022-10-17T06:33:58;14.50;99.90
39023;DHT22;25908;51.984;5.928;2022-10-17T06:36:23;14.50;99.90
39023;DHT22;25908;51.984;5.928;2022-10-17T06:38:49;14.50;99.90
39023;DHT22;25908;51.984;5.928;2022-10-17T06:41:15;14.60;99.90
39023;DHT22;25908;51.984;5.928;2022-10-17T06:43:44;14.60;99.90
39023;DHT22;25908;51.984;5.928;2022-10-17T06:46:14;14.60;99.90
39023;DHT22;25908;51.984;5.928;2022-10-17T06:48:40;14.60;99.90
39023;DHT22;25908;51.984;5.928;2022-10-17T06:51:06;14.70;99.90
39023;DHT22;25908;51.984;5.928;2022-10-17T06:53:34;14.70;99.90
39023;DHT22;25908;51.984;5.928;2022-10-17T06:56:01;14.70;99.90
39023;DHT22;25908;51.984;5.928;2022-10-17T06:58:29;14.70;99.90
39023;DHT22;25908;51.984;5.928;2022-10-17T07:01:03;14.80;99.90
39023;DHT22;25908;51.984;5.928;2022-10-17T07:03:29;14.80;99.90
39023;DHT22;25908;51.984;5.928;2022-10-17T07:05:55;14.80;99.90
39023;DHT22;25908;51.984;5.928;2022-10-17T07:08:21;14.90;99.90
39023;DHT22;25908;51.984;5.928;2022-10-17T07:10:47;14.90;99.90
39023;DHT22;25908;51.984;5.928;2022-10-17T07:13:13;14.90;99.90
39023;DHT22;25908;51.984;5.928;2022-10-17T07:15:40;15.00;99.90
39023;DHT22;25908;51.984;5.928;2022-10-17T07:18:06;15.00;99.90
39023;DHT22;25908;51.984;5.928;2022-10-17T07:20:32;15.10;99.90
39023;DHT22;25908;51.984;5.928;2022-10-17T07:22:58;15.10;99.90
39023;DHT22;25908;51.984;5.928;2022-10-17T07:25:24;15.10;99.90
39023;DHT22;25908;51.984;5.928;2022-10-17T07:27:50;15.20;99.90
39023;DHT22;25908;51.984;5.928;2022-10-17T07:30:16;15.20;99.90
39023;DHT22;25908;51.984;5.928;2022-10-17T07:32:42;15.30;99.90
39023;DHT22;25908;51.984;5.928;2022-10-17T07:35:08;15.40;99.90
39023;DHT22;25908;51.984;5.928;2022-10-17T07:37:34;15.50;99.90
39023;DHT22;25908;51.984;5.928;2022-10-17T07:40:00;15.60;99.90
39023;DHT22;25908;51.984;5.928;2022-10-17T07:42:26;15.70;99.90
39023;DHT22;25908;51.984;5.928;2022-10-17T07:44:53;15.80;99.90
39023;DHT22;25908;51.984;5.928;2022-10-17T07:47:19;15.90;99.90
39023;DHT22;25908;51.984;5.928;2022-10-17T07:49:44;15.90;99.90
39023;DHT22;25908;51.984;5.928;2022-10-17T07:52:12;16.00;99.90
39023;DHT22;25908;51.984;5.928;2022-10-17T07:54:38;16.00;99.90
39023;DHT22;25908;51.984;5.928;2022-10-17T07:57:03;16.00;99.90
39023;DHT22;25908;51.984;5.928;2022-10-17T07:59:29;16.10;99.90
39023;DHT22;25908;51.984;5.928;2022-10-17T08:01:55;16.10;99.90
39023;DHT22;25908;51.984;5.928;2022-10-17T08:04:21;16.10;99.90
39023;DHT22;25908;51.984;5.928;2022-10-17T08:06:48;16.10;99.90
39023;DHT22;25908;51.984;5.928;2022-10-17T08:09:13;16.10;99.90
39023;DHT22;25908;51.984;5.928;2022-10-17T08:11:39;16.10;99.90
39023;DHT22;25908;51.984;5.928;2022-10-17T08:14:04;16.10;99.90
39023;DHT22;25908;51.984;5.928;2022-10-17T08:16:31;16.10;99.90
39023;DHT22;25908;51.984;5.928;2022-10-17T08:18:56;16.10;99.90
39023;DHT22;25908;51.984;5.928;2022-10-17T08:21:22;16.10;99.90
39023;DHT22;25908;51.984;5.928;2022-10-17T08:23:47;16.10;99.90
39023;DHT22;25908;51.984;5.928;2022-10-17T08:26:13;16.10;99.90
39023;DHT22;25908;51.984;5.928;2022-10-17T08:28:41;16.10;99.90
39023;DHT22;25908;51.984;5.928;2022-10-17T08:31:09;16.10;99.90
39023;DHT22;25908;51.984;5.928;2022-10-17T08:33:36;16.10;99.90
39023;DHT22;25908;51.984;5.928;2022-10-17T08:36:03;16.20;99.90
39023;DHT22;25908;51.984;5.928;2022-10-17T08:38:29;16.20;99.90
39023;DHT22;25908;51.984;5.928;2022-10-17T08:41:00;16.20;99.90
39023;DHT22;25908;51.984;5.928;2022-10-17T08:45:59;16.30;99.90
39023;DHT22;25908;51.984;5.928;2022-10-17T08:48:28;16.40;99.90
39023;DHT22;25908;51.984;5.928;2022-10-17T08:50:59;16.40;99.90
39023;DHT22;25908;51.984;5.928;2022-10-17T08:53:42;16.40;99.90
39023;DHT22;25908;51.984;5.928;2022-10-17T08:56:22;16.40;99.90
39023;DHT22;25908;51.984;5.928;2022-10-17T08:58:48;16.40;99.90
39023;DHT22;25908;51.984;5.928;2022-10-17T09:01:35;16.50;99.90
39023;DHT22;25908;51.984;5.928;2022-10-17T09:04:24;16.50;99.90
39023;DHT22;25908;51.984;5.928;2022-10-17T09:07:12;16.50;99.90
39023;DHT22;25908;51.984;5.928;2022-10-17T09:09:51;16.50;99.90
39023;DHT22;25908;51.984;5.928;2022-10-17T09:12:45;16.50;99.90
39023;DHT22;25908;51.984;5.928;2022-10-17T09:17:55;16.60;99.90
39023;DHT22;25908;51.984;5.928;2022-10-17T09:20:27;16.60;99.90
39023;DHT22;25908;51.984;5.928;2022-10-17T09:23:01;16.60;99.90
39023;DHT22;25908;51.984;5.928;2022-10-17T09:25:44;16.60;99.90
39023;DHT22;25908;51.984;5.928;2022-10-17T09:33:39;16.60;99.90
39023;DHT22;25908;51.984;5.928;2022-10-17T09:36:38;16.70;99.90
39023;DHT22;25908;51.984;5.928;2022-10-17T09:39:12;16.70;99.90
39023;DHT22;25908;51.984;5.928;2022-10-17T09:41:48;16.70;99.90
39023;DHT22;25908;51.984;5.928;2022-10-17T09:44:34;16.70;99.90
39023;DHT22;25908;51.984;5.928;2022-10-17T09:49:33;16.70;99.90
39023;DHT22;25908;51.984;5.928;2022-10-17T09:52:03;16.70;99.90
39023;DHT22;25908;51.984;5.928;2022-10-17T09:54:43;16.70;99.90
39023;DHT22;25908;51.984;5.928;2022-10-17T09:57:11;16.70;99.90
39023;DHT22;25908;51.984;5.928;2022-10-17T09:59:39;16.70;99.90
39023;DHT22;25908;51.984;5.928;2022-10-17T10:04:34;16.80;99.90
39023;DHT22;25908;51.984;5.928;2022-10-17T10:07:05;16.80;99.90
39023;DHT22;25908;51.984;5.928;2022-10-17T10:09:33;16.80;99.90
39023;DHT22;25908;51.984;5.928;2022-10-17T10:12:05;16.80;99.90
39023;DHT22;25908;51.984;5.928;2022-10-17T10:14:34;16.80;99.90
39023;DHT22;25908;51.984;5.928;2022-10-17T10:17:02;16.90;99.90
39023;DHT22;25908;51.984;5.928;2022-10-17T10:19:31;16.90;99.90
39023;DHT22;25908;51.984;5.928;2022-10-17T10:21:59;16.90;99.90
39023;DHT22;25908;51.984;5.928;2022-10-17T10:24:25;17.00;99.90
39023;DHT22;25908;51.984;5.928;2022-10-17T10:26:53;17.00;99.90
39023;DHT22;25908;51.984;5.928;2022-10-17T10:29:41;17.00;99.90
39023;DHT22;25908;51.984;5.928;2022-10-17T10:32:32;16.90;99.90
39023;DHT22;25908;51.984;5.928;2022-10-17T10:35:02;17.00;99.90
39023;DHT22;25908;51.984;5.928;2022-10-17T10:37:37;17.00;99.90
39023;DHT22;25908;51.984;5.928;2022-10-17T10:40:13;17.00;99.90
39023;DHT22;25908;51.984;5.928;2022-10-17T10:42:41;17.00;99.90
39023;DHT22;25908;51.984;5.928;2022-10-17T10:45:21;17.00;99.90
39023;DHT22;25908;51.984;5.928;2022-10-17T10:48:01;17.00;99.90
39023;DHT22;25908;51.984;5.928;2022-10-17T10:50:41;17.10;99.90
39023;DHT22;25908;51.984;5.928;2022-10-17T10:53:33;17.10;99.90
39023;DHT22;25908;51.984;5.928;2022-10-17T10:56:19;17.10;99.90
39023;DHT22;25908;51.984;5.928;2022-10-17T10:58:56;17.20;99.90
39023;DHT22;25908;51.984;5.928;2022-10-17T11:04:43;17.20;99.90
39023;DHT22;25908;51.984;5.928;2022-10-17T11:07:24;17.30;99.90
39023;DHT22;25908;51.984;5.928;2022-10-17T11:10:20;17.30;99.90
39023;DHT22;25908;51.984;5.928;2022-10-17T11:18:34;17.30;99.90
39023;DHT22;25908;51.984;5.928;2022-10-17T11:27:04;17.30;99.90
39023;DHT22;25908;51.984;5.928;2022-10-17T11:29:34;17.40;99.90
39023;DHT22;25908;51.984;5.928;2022-10-17T11:32:12;17.30;99.90
39023;DHT22;25908;51.984;5.928;2022-10-17T11:34:49;17.40;99.90
39023;DHT22;25908;51.984;5.928;2022-10-17T11:37:29;17.40;99.90
39023;DHT22;25908;51.984;5.928;2022-10-17T11:40:05;17.40;99.90
39023;DHT22;25908;51.984;5.928;2022-10-17T11:42:50;17.40;99.90
39023;DHT22;25908;51.984;5.928;2022-10-17T11:45:19;17.40;99.90
39023;DHT22;25908;51.984;5.928;2022-10-17T11:47:52;17.40;99.90
39023;DHT22;25908;51.984;5.928;2022-10-17T11:52:55;17.50;99.90
39023;DHT22;25908;51.984;5.928;2022-10-17T11:55:24;17.50;99.90
39023;DHT22;25908;51.984;5.928;2022-10-17T12:12:32;17.60;99.90
39023;DHT22;25908;51.984;5.928;2022-10-17T12:18:14;17.60;99.90
39023;DHT22;25908;51.984;5.928;2022-10-17T12:20:40;17.60;99.90
39023;DHT22;25908;51.984;5.928;2022-10-17T12:28:16;17.60;99.90
39023;DHT22;25908;51.984;5.928;2022-10-17T12:41:52;17.60;99.90
39023;DHT22;25908;51.984;5.928;2022-10-17T12:49:50;17.60;99.90
39023;DHT22;25908;51.984;5.928;2022-10-17T12:57:41;17.60;99.90
39023;DHT22;25908;51.984;5.928;2022-10-17T13:00:32;17.60;99.90
39023;DHT22;25908;51.984;5.928;2022-10-17T13:03:41;17.70;99.90
39023;DHT22;25908;51.984;5.928;2022-10-17T13:06:16;17.70;99.90
39023;DHT22;25908;51.984;5.928;2022-10-17T13:08:46;17.70;99.90
39023;DHT22;25908;51.984;5.928;2022-10-17T13:11:13;17.70;99.90
39023;DHT22;25908;51.984;5.928;2022-10-17T13:13:49;17.70;99.90
39023;DHT22;25908;51.984;5.928;2022-10-17T13:16:32;17.80;99.90
39023;DHT22;25908;51.984;5.928;2022-10-17T13:18:59;17.80;99.90
39023;DHT22;25908;51.984;5.928;2022-10-17T13:21:26;17.80;99.90
39023;DHT22;25908;51.984;5.928;2022-10-17T13:23:52;17.80;99.90
39023;DHT22;25908;51.984;5.928;2022-10-17T13:26:20;17.80;99.90
39023;DHT22;25908;51.984;5.928;2022-10-17T13:29:06;17.80;99.90
39023;DHT22;25908;51.984;5.928;2022-10-17T13:31:37;17.80;99.90
39023;DHT22;25908;51.984;5.928;2022-10-17T13:34:05;17.80;99.90
39023;DHT22;25908;51.984;5.928;2022-10-17T13:36:32;17.80;99.90
39023;DHT22;25908;51.984;5.928;2022-10-17T13:39:03;17.80;99.90
39023;DHT22;25908;51.984;5.928;2022-10-17T13:41:31;17.80;99.90
39023;DHT22;25908;51.984;5.928;2022-10-17T13:44:00;17.80;99.90
39023;DHT22;25908;51.984;5.928;2022-10-17T13:46:32;17.80;99.90
39023;DHT22;25908;51.984;5.928;2022-10-17T13:48:59;17.90;99.90
39023;DHT22;25908;51.984;5.928;2022-10-17T13:51:33;17.90;99.90
39023;DHT22;25908;51.984;5.928;2022-10-17T13:53:59;17.90;99.90
39023;DHT22;25908;51.984;5.928;2022-10-17T13:56:26;17.90;99.90
39023;DHT22;25908;51.984;5.928;2022-10-17T13:58:54;17.90;99.90
39023;DHT22;25908;51.984;5.928;2022-10-17T14:01:23;17.90;99.90
39023;DHT22;25908;51.984;5.928;2022-10-17T14:03:49;17.90;99.90
39023;DHT22;25908;51.984;5.928;2022-10-17T14:06:19;17.90;99.90
39023;DHT22;25908;51.984;5.928;2022-10-17T14:11:44;17.90;99.90
39023;DHT22;25908;51.984;5.928;2022-10-17T14:14:22;17.90;99.90
39023;DHT22;25908;51.984;5.928;2022-10-17T14:16:48;17.90;99.90
39023;DHT22;25908;51.984;5.928;2022-10-17T14:19:25;17.90;99.90
39023;DHT22;25908;51.984;5.928;2022-10-17T14:21:55;17.90;99.90
39023;DHT22;25908;51.984;5.928;2022-10-17T14:24:38;17.90;99.90
39023;DHT22;25908;51.984;5.928;2022-10-17T14:29:51;17.90;99.90
39023;DHT22;25908;51.984;5.928;2022-10-17T14:32:18;17.90;99.90
39023;DHT22;25908;51.984;5.928;2022-10-17T14:34:45;17.90;99.90
39023;DHT22;25908;51.984;5.928;2022-10-17T14:39:49;18.00;99.90
39023;DHT22;25908;51.984;5.928;2022-10-17T14:42:18;18.00;99.90
39023;DHT22;25908;51.984;5.928;2022-10-17T14:44:48;18.00;99.90
39023;DHT22;25908;51.984;5.928;2022-10-17T14:47:17;18.00;99.90
39023;DHT22;25908;51.984;5.928;2022-10-17T14:49:48;18.00;99.90
39023;DHT22;25908;51.984;5.928;2022-10-17T14:54:41;18.00;99.90
39023;DHT22;25908;51.984;5.928;2022-10-17T14:57:23;18.00;99.90
39023;DHT22;25908;51.984;5.928;2022-10-17T14:59:50;18.00;99.90
39023;DHT22;25908;51.984;5.928;2022-10-17T15:02:15;18.00;99.90
39023;DHT22;25908;51.984;5.928;2022-10-17T15:04:41;17.90;99.90
39023;DHT22;25908;51.984;5.928;2022-10-17T15:07:15;18.00;99.90
39023;DHT22;25908;51.984;5.928;2022-10-17T15:09:42;18.00;99.90
39023;DHT22;25908;51.984;5.928;2022-10-17T15:12:19;18.00;99.90
39023;DHT22;25908;51.984;5.928;2022-10-17T15:14:46;18.00;99.90
39023;DHT22;25908;51.984;5.928;2022-10-17T15:17:16;18.00;99.90
39023;DHT22;25908;51.984;5.928;2022-10-17T15:19:42;17.90;99.90
39023;DHT22;25908;51.984;5.928;2022-10-17T15:22:08;17.90;99.90
39023;DHT22;25908;51.984;5.928;2022-10-17T15:24:33;17.90;99.90
39023;DHT22;25908;51.984;5.928;2022-10-17T15:26:59;18.00;99.90
39023;DHT22;25908;51.984;5.928;2022-10-17T15:29:25;17.90;99.90
39023;DHT22;25908;51.984;5.928;2022-10-17T15:31:50;18.00;99.90
39023;DHT22;25908;51.984;5.928;2022-10-17T15:34:16;17.90;99.90
39023;DHT22;25908;51.984;5.928;2022-10-17T15:36:48;18.00;99.90
39023;DHT22;25908;51.984;5.928;2022-10-17T15:39:14;18.00;99.90
39023;DHT22;25908;51.984;5.928;2022-10-17T15:41:39;18.00;99.90
39023;DHT22;25908;51.984;5.928;2022-10-17T15:44:05;18.00;99.90
39023;DHT22;25908;51.984;5.928;2022-10-17T15:46:34;18.00;99.90
39023;DHT22;25908;51.984;5.928;2022-10-17T15:49:04;18.00;99.90
39023;DHT22;25908;51.984;5.928;2022-10-17T15:51:32;18.00;99.90
39023;DHT22;25908;51.984;5.928;2022-10-17T15:53:57;18.00;99.90
39023;DHT22;25908;51.984;5.928;2022-10-17T15:56:28;18.00;99.90
39023;DHT22;25908;51.984;5.928;2022-10-17T15:58:54;18.00;99.90
39023;DHT22;25908;51.984;5.928;2022-10-17T16:01:27;17.90;99.90
39023;DHT22;25908;51.984;5.928;2022-10-17T16:03:54;17.90;99.90
39023;DHT22;25908;51.984;5.928;2022-10-17T16:06:20;18.00;99.90
39023;DHT22;25908;51.984;5.928;2022-10-17T16:08:47;17.90;99.90
39023;DHT22;25908;51.984;5.928;2022-10-17T16:11:40;17.90;99.90
39023;DHT22;25908;51.984;5.928;2022-10-17T16:14:10;17.90;99.90
39023;DHT22;25908;51.984;5.928;2022-10-17T16:16:35;17.90;99.90
39023;DHT22;25908;51.984;5.928;2022-10-17T16:19:01;17.90;99.90
39023;DHT22;25908;51.984;5.928;2022-10-17T16:21:29;17.80;99.90
39023;DHT22;25908;51.984;5.928;2022-10-17T16:23:56;17.80;99.90
39023;DHT22;25908;51.984;5.928;2022-10-17T16:26:22;17.80;99.90
39023;DHT22;25908;51.984;5.928;2022-10-17T16:28:47;17.80;99.90
39023;DHT22;25908;51.984;5.928;2022-10-17T16:33:43;17.80;99.90
39023;DHT22;25908;51.984;5.928;2022-10-17T16:36:09;17.70;99.90
39023;DHT22;25908;51.984;5.928;2022-10-17T16:38:35;17.70;99.90
39023;DHT22;25908;51.984;5.928;2022-10-17T16:41:00;17.70;99.90
39023;DHT22;25908;51.984;5.928;2022-10-17T16:43:26;17.70;99.90
39023;DHT22;25908;51.984;5.928;2022-10-17T16:45:51;17.70;99.90
39023;DHT22;25908;51.984;5.928;2022-10-17T16:48:17;17.60;99.90
39023;DHT22;25908;51.984;5.928;2022-10-17T16:50:42;17.60;99.90
39023;DHT22;25908;51.984;5.928;2022-10-17T16:53:08;17.60;99.90
39023;DHT22;25908;51.984;5.928;2022-10-17T16:55:34;17.60;99.90
39023;DHT22;25908;51.984;5.928;2022-10-17T16:57:59;17.60;99.90
39023;DHT22;25908;51.984;5.928;2022-10-17T17:00:25;17.60;99.90
39023;DHT22;25908;51.984;5.928;2022-10-17T17:02:51;17.60;99.90
39023;DHT22;25908;51.984;5.928;2022-10-17T17:05:16;17.60;99.90
39023;DHT22;25908;51.984;5.928;2022-10-17T17:07:42;17.60;99.90
39023;DHT22;25908;51.984;5.928;2022-10-17T17:10:08;17.60;99.90
39023;DHT22;25908;51.984;5.928;2022-10-17T17:12:34;17.60;99.90
39023;DHT22;25908;51.984;5.928;2022-10-17T17:15:00;17.60;99.90
39023;DHT22;25908;51.984;5.928;2022-10-17T17:17:26;17.60;99.90
39023;DHT22;25908;51.984;5.928;2022-10-17T17:19:52;17.60;99.90
39023;DHT22;25908;51.984;5.928;2022-10-17T17:22:17;17.60;99.90
39023;DHT22;25908;51.984;5.928;2022-10-17T17:24:43;17.60;99.90
39023;DHT22;25908;51.984;5.928;2022-10-17T17:27:09;17.60;99.90
39023;DHT22;25908;51.984;5.928;2022-10-17T17:29:34;17.60;99.90
39023;DHT22;25908;51.984;5.928;2022-10-17T17:32:00;17.50;99.90
39023;DHT22;25908;51.984;5.928;2022-10-17T17:34:25;17.50;99.90
39023;DHT22;25908;51.984;5.928;2022-10-17T17:36:51;17.50;99.90
39023;DHT22;25908;51.984;5.928;2022-10-17T17:39:16;17.50;99.90